createdAt,value
2022-12-04T00:00:13.527Z,21.85
2022-12-04T00:02:41.100Z,41.33
2022-12-04T00:05:09.088Z,44.17
2022-12-04T00:07:36.269Z,42.03
2022-12-04T00:10:03.598Z,42.50
2022-12-04T00:12:30.468Z,39.55
2022-12-04T00:17:47.943Z,68.70
2022-12-04T00:20:14.904Z,65.88
2022-12-04T00:22:41.814Z,63.50
2022-12-04T00:25:08.973Z,54.65
2022-12-04T00:27:35.816Z,55.42
2022-12-04T00:30:02.845Z,51.97
2022-12-04T00:32:30.423Z,47.08
2022-12-04T00:34:57.480Z,45.17
2022-12-04T00:37:24.412Z,41.38
2022-12-04T00:39:51.449Z,39.03
2022-12-04T00:42:18.434Z,38.80
2022-12-04T00:44:45.366Z,37.95
2022-12-04T00:47:12.242Z,35.50
2022-12-04T00:49:39.137Z,33.85
2022-12-04T00:52:06.037Z,33.08
2022-12-04T00:54:32.942Z,33.40
2022-12-04T00:56:59.830Z,30.20
2022-12-04T00:59:26.751Z,30.42
2022-12-04T01:01:53.658Z,31.15
2022-12-04T01:04:21.008Z,29.40
2022-12-04T01:06:47.969Z,29.25
2022-12-04T01:09:14.995Z,28.92
2022-12-04T01:11:41.868Z,28.63
2022-12-04T01:14:08.767Z,26.60
2022-12-04T01:16:37.583Z,27.80
2022-12-04T01:19:06.396Z,27.70
2022-12-04T01:21:33.915Z,26.77
2022-12-04T01:24:00.889Z,25.58
2022-12-04T01:26:27.958Z,25.60
2022-12-04T01:28:54.891Z,25.90
2022-12-04T01:31:22.992Z,25.25
2022-12-04T01:33:50.750Z,24.75
2022-12-04T01:36:21.112Z,25.13
2022-12-04T01:38:48.462Z,23.48
2022-12-04T01:41:17.798Z,24.30
2022-12-04T01:43:44.701Z,23.58
2022-12-04T01:46:12.087Z,23.90
2022-12-04T01:49:05.684Z,22.90
2022-12-04T01:51:39.288Z,23.48
2022-12-04T01:54:17.837Z,21.80
2022-12-04T01:56:50.815Z,22.45
2022-12-04T01:59:19.855Z,22.10
2022-12-04T02:02:04.056Z,21.83
2022-12-04T02:04:31.842Z,21.77
2022-12-04T02:06:58.943Z,21.23
2022-12-04T02:09:27.124Z,20.90
2022-12-04T02:12:06.428Z,20.70
2022-12-04T02:15:00.185Z,20.02
2022-12-04T02:17:40.347Z,20.13
2022-12-04T02:20:16.060Z,20.65
2022-12-04T02:23:21.029Z,19.50
2022-12-04T02:25:57.459Z,19.60
2022-12-04T02:28:42.411Z,19.50
2022-12-04T02:31:13.895Z,19.65
2022-12-04T02:34:01.727Z,18.58
2022-12-04T02:36:31.901Z,19.10
2022-12-04T02:39:10.308Z,19.15
2022-12-04T02:41:42.242Z,19.77
2022-12-04T02:44:25.520Z,18.48
2022-12-04T02:46:57.175Z,19.45
2022-12-04T02:50:13.144Z,18.42
2022-12-04T02:53:08.649Z,18.20
2022-12-04T02:55:39.872Z,18.25
2022-12-04T02:58:12.031Z,16.95
2022-12-04T03:00:41.598Z,18.15
2022-12-04T03:05:52.081Z,17.25
2022-12-04T03:08:21.982Z,17.73
2022-12-04T03:10:56.121Z,17.30
2022-12-04T03:13:37.996Z,17.58
2022-12-04T03:16:07.071Z,17.02
2022-12-04T03:18:40.449Z,17.90
2022-12-04T03:21:11.583Z,16.65
2022-12-04T03:23:50.952Z,15.57
2022-12-04T03:26:23.785Z,17.65
2022-12-04T03:28:59.487Z,16.00
2022-12-04T03:31:40.802Z,15.32
2022-12-04T03:34:08.510Z,16.40
2022-12-04T03:36:38.937Z,16.10
2022-12-04T03:39:21.501Z,16.00
2022-12-04T03:42:02.414Z,16.52
2022-12-04T03:44:48.360Z,15.88
2022-12-04T03:47:19.065Z,15.55
2022-12-04T03:50:11.938Z,15.38
2022-12-04T03:52:47.890Z,16.08
2022-12-04T03:55:25.332Z,14.77
2022-12-04T03:57:53.230Z,15.60
2022-12-04T04:00:23.158Z,15.43
2022-12-04T04:03:13.691Z,15.85
2022-12-04T04:05:46.340Z,14.90
2022-12-04T04:08:31.147Z,13.90
2022-12-04T04:11:08.761Z,14.63
2022-12-04T04:14:02.123Z,13.82
2022-12-04T04:16:50.602Z,15.05
2022-12-04T04:19:37.694Z,14.32
2022-12-04T04:22:26.740Z,14.00
2022-12-04T04:25:08.144Z,14.40
2022-12-04T04:27:34.991Z,14.38
2022-12-04T04:30:02.279Z,14.27
2022-12-04T04:32:29.114Z,13.60
2022-12-04T04:35:35.217Z,14.00
2022-12-04T04:38:28.791Z,14.13
2022-12-04T04:41:30.296Z,13.85
2022-12-04T04:44:04.172Z,13.85
2022-12-04T04:46:36.360Z,13.20
2022-12-04T04:49:05.430Z,13.25
2022-12-04T04:51:34.189Z,13.45
2022-12-04T04:54:04.764Z,12.87
2022-12-04T04:56:31.866Z,13.18
2022-12-04T04:58:58.707Z,12.95
2022-12-04T05:01:28.412Z,12.48
2022-12-04T05:03:55.431Z,12.88
2022-12-04T05:06:22.313Z,12.80
2022-12-04T05:08:49.411Z,13.20
2022-12-04T05:11:17.255Z,12.40
2022-12-04T05:13:44.396Z,13.07
2022-12-04T05:16:13.791Z,13.07
2022-12-04T05:18:41.082Z,12.63
2022-12-04T05:21:09.704Z,13.25
2022-12-04T05:23:36.592Z,12.95
2022-12-04T05:26:05.203Z,12.38
2022-12-04T05:28:32.180Z,12.00
2022-12-04T05:31:01.424Z,11.80
2022-12-04T05:33:29.365Z,11.98
2022-12-04T05:36:01.150Z,12.02
2022-12-04T05:38:28.257Z,12.02
2022-12-04T05:40:55.184Z,12.15
2022-12-04T05:43:22.064Z,11.82
2022-12-04T05:45:48.959Z,12.18
2022-12-04T05:48:15.800Z,11.68
2022-12-04T05:50:42.797Z,11.35
2022-12-04T05:53:09.660Z,10.55
2022-12-04T05:55:37.312Z,10.75
2022-12-04T05:58:04.884Z,11.38
2022-12-04T06:00:33.062Z,11.27
2022-12-04T06:03:00.164Z,10.50
2022-12-04T06:05:27.177Z,10.45
2022-12-04T06:07:54.095Z,10.25
2022-12-04T06:10:20.988Z,10.40
2022-12-04T06:12:47.905Z,10.90
2022-12-04T06:15:14.797Z,10.98
2022-12-04T06:17:41.639Z,10.35
2022-12-04T06:20:11.802Z,10.57
2022-12-04T06:22:39.207Z,10.25
2022-12-04T06:25:07.106Z,10.18
2022-12-04T06:27:34.157Z,9.35
2022-12-04T06:30:01.274Z,10.07
2022-12-04T06:32:28.280Z,10.10
2022-12-04T06:34:55.635Z,9.60
2022-12-04T06:37:24.330Z,9.43
2022-12-04T06:39:51.297Z,8.75
2022-12-04T06:42:18.170Z,9.25
2022-12-04T06:44:45.091Z,9.63
2022-12-04T06:47:12.050Z,9.70
2022-12-04T06:49:38.987Z,9.82
2022-12-04T06:52:05.885Z,8.93
2022-12-04T06:54:32.768Z,9.18
2022-12-04T06:56:59.756Z,8.90
2022-12-04T06:59:27.843Z,8.80
2022-12-04T07:01:54.801Z,9.20
2022-12-04T07:04:21.775Z,9.60
2022-12-04T07:06:48.657Z,8.57
2022-12-04T07:09:17.413Z,9.38
2022-12-04T07:11:45.238Z,8.63
2022-12-04T07:14:12.818Z,9.45
2022-12-04T07:16:41.909Z,9.40
2022-12-04T07:21:36.763Z,8.63
2022-12-04T07:24:04.179Z,8.35
2022-12-04T07:26:31.588Z,7.93
2022-12-04T07:28:59.123Z,8.32
2022-12-04T07:31:28.151Z,8.77
2022-12-04T07:33:55.967Z,9.25
2022-12-04T07:36:23.944Z,8.38
2022-12-04T07:38:51.186Z,8.20
2022-12-04T07:41:19.086Z,8.70
2022-12-04T07:43:46.082Z,7.85
2022-12-04T07:46:19.142Z,8.00
2022-12-04T07:48:46.551Z,8.30
2022-12-04T07:51:21.995Z,8.07
2022-12-04T07:53:49.867Z,8.10
2022-12-04T07:56:17.271Z,8.40
2022-12-04T07:58:44.601Z,8.20
2022-12-04T08:01:15.988Z,8.43
2022-12-04T08:03:47.972Z,8.07
2022-12-04T08:06:16.173Z,8.50
2022-12-04T08:08:43.046Z,8.05
2022-12-04T08:11:12.609Z,7.93
2022-12-04T08:13:39.561Z,7.90
2022-12-04T08:16:08.305Z,7.43
2022-12-04T08:18:35.636Z,8.07
2022-12-04T08:21:06.812Z,7.97
2022-12-04T08:23:35.987Z,8.00
2022-12-04T08:26:03.975Z,7.93
2022-12-04T08:28:30.958Z,8.23
2022-12-04T08:31:07.100Z,8.43
2022-12-04T08:33:34.583Z,7.63
2022-12-04T08:36:01.610Z,7.72
2022-12-04T08:38:28.501Z,7.78
2022-12-04T08:40:55.417Z,7.97
2022-12-04T08:43:22.338Z,8.65
2022-12-04T08:46:02.986Z,31.05
2022-12-04T08:48:30.380Z,32.55
2022-12-04T08:50:57.712Z,28.67
2022-12-04T08:53:25.322Z,26.27
2022-12-04T08:55:52.555Z,24.10
2022-12-04T08:58:20.255Z,23.08
2022-12-04T09:00:50.122Z,22.70
2022-12-04T09:03:18.817Z,20.77
2022-12-04T09:05:46.172Z,19.80
2022-12-04T09:08:14.431Z,19.50
2022-12-04T09:10:41.763Z,18.55
2022-12-04T09:13:09.099Z,17.63
2022-12-04T09:15:39.435Z,16.95
2022-12-04T09:18:07.381Z,15.82
2022-12-04T09:20:34.345Z,15.38
2022-12-04T09:23:04.305Z,15.90
2022-12-04T09:25:31.855Z,14.38
2022-12-04T09:27:58.910Z,14.40
2022-12-04T09:30:25.901Z,14.35
2022-12-04T09:32:52.881Z,12.77
2022-12-04T09:35:19.896Z,13.68
2022-12-04T09:37:46.812Z,30.75
2022-12-04T09:40:30.673Z,39.42
2022-12-04T09:43:21.739Z,34.05
2022-12-04T09:45:52.102Z,32.72
2022-12-04T09:48:20.618Z,29.77
2022-12-04T09:50:48.516Z,26.33
2022-12-04T09:53:27.251Z,25.42
2022-12-04T09:56:09.373Z,24.50
2022-12-04T09:58:47.778Z,21.83
2022-12-04T10:01:27.417Z,26.13
2022-12-04T10:03:57.810Z,40.63
2022-12-04T10:06:35.932Z,33.97
2022-12-04T10:09:17.574Z,30.88
2022-12-04T10:11:57.258Z,29.50
2022-12-04T10:20:12.943Z,22.25
2022-12-04T10:23:16.302Z,21.95
2022-12-04T10:25:43.998Z,19.25
2022-12-04T10:28:30.222Z,18.17
2022-12-04T10:31:01.007Z,17.95
2022-12-04T10:33:38.361Z,17.83
2022-12-04T10:36:05.791Z,16.80
2022-12-04T10:38:54.407Z,15.80
2022-12-04T10:41:35.584Z,16.10
2022-12-04T10:44:02.547Z,15.80
2022-12-04T10:46:32.026Z,27.38
2022-12-04T10:49:18.571Z,32.38
2022-12-04T10:51:46.360Z,31.08
2022-12-04T10:54:50.423Z,29.48
2022-12-04T10:57:18.067Z,28.63
2022-12-04T10:59:56.271Z,26.42
2022-12-04T11:02:29.071Z,25.77
2022-12-04T11:05:01.806Z,25.42
2022-12-04T11:07:32.048Z,29.08
2022-12-04T11:10:07.655Z,31.88
2022-12-04T11:12:34.877Z,27.75
2022-12-04T11:15:07.859Z,26.15
2022-12-04T11:17:37.951Z,25.33
2022-12-04T11:20:20.703Z,21.92
2022-12-04T11:23:00.323Z,21.05
2022-12-04T11:25:31.143Z,21.48
2022-12-04T11:28:00.951Z,20.77
2022-12-04T11:30:36.174Z,18.77
2022-12-04T11:33:04.320Z,19.52
2022-12-04T11:35:31.907Z,17.95
2022-12-04T11:38:09.404Z,17.98
2022-12-04T11:40:36.832Z,17.98
2022-12-04T11:43:05.260Z,16.80
2022-12-04T11:45:32.816Z,16.92
2022-12-04T11:48:02.865Z,17.05
2022-12-04T11:50:38.217Z,15.80
2022-12-04T11:53:10.920Z,29.02
2022-12-04T11:55:47.809Z,33.92
2022-12-04T11:58:17.489Z,33.83
2022-12-04T12:03:49.504Z,28.17
2022-12-04T12:06:34.533Z,27.30
2022-12-04T12:09:03.945Z,25.75
2022-12-04T12:11:35.920Z,32.00
2022-12-04T12:14:32.615Z,25.45
2022-12-04T12:17:16.657Z,25.35
2022-12-04T12:20:11.526Z,30.67
2022-12-04T12:22:44.428Z,31.25
2022-12-04T12:25:39.241Z,31.88
2022-12-04T12:28:38.459Z,33.85
2022-12-04T12:31:37.680Z,34.88
2022-12-04T12:34:09.492Z,36.70
2022-12-04T12:39:33.464Z,37.20
2022-12-04T12:42:01.592Z,37.30
2022-12-04T12:44:44.132Z,37.22
2022-12-04T12:47:19.550Z,36.08
2022-12-04T12:49:53.211Z,36.45
2022-12-04T12:52:45.544Z,34.53
2022-12-04T12:55:15.569Z,32.15
2022-12-04T12:57:45.447Z,29.58
2022-12-04T13:00:20.399Z,27.58
2022-12-04T13:03:17.203Z,26.75
2022-12-04T13:05:46.763Z,25.13
2022-12-04T13:08:30.166Z,26.42
2022-12-04T13:11:13.816Z,27.00
2022-12-04T13:13:48.178Z,26.02
2022-12-04T13:16:45.180Z,24.98
2022-12-04T13:19:31.882Z,24.27
2022-12-04T13:22:18.846Z,22.95
2022-12-04T13:24:54.730Z,23.20
2022-12-04T13:27:24.422Z,22.88
2022-12-04T13:30:10.017Z,20.85
2022-12-04T13:32:58.263Z,21.40
2022-12-04T13:35:56.294Z,19.95
2022-12-04T13:38:48.281Z,20.48
2022-12-04T13:41:20.677Z,19.20
2022-12-04T13:43:49.227Z,17.38
2022-12-04T13:46:38.535Z,18.90
2022-12-04T13:49:17.617Z,17.63
2022-12-04T13:51:46.204Z,17.27
2022-12-04T13:54:13.133Z,17.10
2022-12-04T13:56:42.164Z,17.58
2022-12-04T13:59:27.553Z,17.27
2022-12-04T14:01:57.494Z,16.15
2022-12-04T14:04:45.554Z,16.83
2022-12-04T14:07:34.101Z,16.73
2022-12-04T14:13:00.154Z,17.00
2022-12-04T14:15:32.982Z,15.02
2022-12-04T14:18:12.550Z,14.68
2022-12-04T14:23:16.491Z,14.57
2022-12-04T14:25:43.395Z,14.75
2022-12-04T14:28:31.586Z,14.90
2022-12-04T14:31:02.265Z,14.32
2022-12-04T14:33:30.831Z,14.40
2022-12-04T14:36:27.691Z,13.93
2022-12-04T14:39:30.215Z,21.83
2022-12-04T14:42:23.491Z,31.77
2022-12-04T14:47:52.440Z,33.67
2022-12-04T14:50:39.937Z,28.85
2022-12-04T14:53:16.535Z,27.83
2022-12-04T14:55:52.744Z,28.35
2022-12-04T14:58:30.802Z,23.25
2022-12-04T15:01:26.921Z,22.95
2022-12-04T15:06:32.245Z,23.60
2022-12-04T15:09:19.749Z,20.23
2022-12-04T15:12:16.163Z,19.80
2022-12-04T15:14:48.168Z,18.48
2022-12-04T15:17:19.090Z,17.83
2022-12-04T15:19:46.045Z,18.80
2022-12-04T15:22:24.408Z,18.30
2022-12-04T15:24:52.408Z,18.33
2022-12-04T15:27:30.346Z,17.67
2022-12-04T15:29:59.694Z,17.70
2022-12-04T15:32:28.798Z,16.48
2022-12-04T15:35:00.928Z,16.60
2022-12-04T15:37:30.018Z,14.90
2022-12-04T15:39:58.486Z,14.68
2022-12-04T15:42:30.286Z,15.60
2022-12-04T15:45:03.533Z,17.27
2022-12-04T15:47:33.452Z,22.10
2022-12-04T15:50:27.089Z,22.70
2022-12-04T15:53:00.239Z,20.88
2022-12-04T15:55:29.440Z,18.60
2022-12-04T15:58:04.597Z,18.33
2022-12-04T16:00:36.301Z,16.55
2022-12-04T16:03:07.892Z,16.15
2022-12-04T16:05:37.335Z,16.83
2022-12-04T16:08:32.653Z,15.75
2022-12-04T16:11:08.664Z,15.32
2022-12-04T16:13:37.883Z,14.63
2022-12-04T16:16:12.003Z,14.40
2022-12-04T16:18:39.904Z,13.15
2022-12-04T16:21:12.618Z,13.55
2022-12-04T16:23:39.458Z,14.18
2022-12-04T16:26:14.133Z,14.60
2022-12-04T16:28:40.992Z,12.85
2022-12-04T16:31:11.630Z,13.80
2022-12-04T16:33:39.050Z,12.23
2022-12-04T16:36:06.884Z,12.65
2022-12-04T16:38:33.716Z,12.35
2022-12-04T16:41:00.637Z,12.43
2022-12-04T16:43:27.531Z,12.32
2022-12-04T16:45:54.944Z,10.93
2022-12-04T16:48:21.850Z,11.13
2022-12-04T16:50:48.706Z,11.32
2022-12-04T16:53:18.925Z,11.90
2022-12-04T16:55:47.895Z,11.35
2022-12-04T16:58:15.548Z,11.63
2022-12-04T17:00:43.866Z,11.02
2022-12-04T17:03:20.876Z,12.02
2022-12-04T17:05:47.836Z,11.80
2022-12-04T17:08:14.908Z,11.38
2022-12-04T17:10:41.819Z,10.70
2022-12-04T17:13:08.714Z,12.75
2022-12-04T17:15:35.952Z,21.63
2022-12-04T17:18:07.574Z,25.48
2022-12-04T17:20:41.350Z,23.88
2022-12-04T17:23:09.133Z,22.40
2022-12-04T17:25:36.051Z,19.10
2022-12-04T17:28:02.995Z,18.98
2022-12-04T17:30:35.665Z,17.40
2022-12-04T17:33:04.067Z,16.60
2022-12-04T17:35:31.258Z,14.80
2022-12-04T17:38:02.291Z,15.00
2022-12-04T17:40:32.682Z,14.40
2022-12-04T17:42:59.714Z,14.35
2022-12-04T17:45:26.752Z,13.38
2022-12-04T17:47:53.693Z,14.40
2022-12-04T17:50:20.546Z,12.75
2022-12-04T17:52:47.486Z,13.15
2022-12-04T17:55:14.345Z,12.52
2022-12-04T17:57:41.169Z,13.30
2022-12-04T18:00:08.832Z,12.80
2022-12-04T18:02:36.519Z,12.07
2022-12-04T18:05:03.558Z,11.52
2022-12-04T18:07:31.475Z,11.43
2022-12-04T18:09:58.607Z,11.18
2022-12-04T18:12:25.741Z,10.90
2022-12-04T18:14:53.816Z,11.23
2022-12-04T18:17:21.811Z,10.90
2022-12-04T18:19:48.691Z,10.30
2022-12-04T18:22:15.640Z,11.38
2022-12-04T18:24:42.487Z,9.70
2022-12-04T18:27:09.437Z,10.27
2022-12-04T18:29:36.429Z,20.70
2022-12-04T18:32:03.585Z,31.63
2022-12-04T18:34:30.643Z,36.75
2022-12-04T18:36:57.619Z,35.00
2022-12-04T18:39:25.561Z,34.28
2022-12-04T18:41:55.985Z,30.95
2022-12-04T18:44:23.140Z,27.88
2022-12-04T18:46:50.134Z,27.15
2022-12-04T18:49:17.187Z,25.48
2022-12-04T18:51:49.978Z,22.60
2022-12-04T18:54:22.652Z,22.17
2022-12-04T18:56:50.144Z,20.35
2022-12-04T18:59:22.299Z,20.70
2022-12-04T19:01:52.476Z,34.67
2022-12-04T19:04:22.110Z,43.08
2022-12-04T19:06:52.025Z,44.97
2022-12-04T19:09:35.454Z,47.92
2022-12-04T19:12:09.277Z,44.65
2022-12-04T19:14:37.911Z,41.40
2022-12-04T19:17:05.025Z,39.23
2022-12-04T19:19:32.140Z,35.08
2022-12-04T19:21:59.228Z,34.15
2022-12-04T19:24:26.191Z,32.05
2022-12-04T19:26:54.345Z,29.70
2022-12-04T19:29:21.211Z,27.38
2022-12-04T19:31:48.188Z,27.23
2022-12-04T19:34:15.120Z,28.75
2022-12-04T19:36:42.758Z,27.48
2022-12-04T19:39:10.284Z,25.58
2022-12-04T19:41:41.408Z,25.17
2022-12-04T19:44:46.346Z,25.20
2022-12-04T19:46:56.725Z,22.75
2022-12-04T19:49:23.711Z,24.50
2022-12-04T19:51:50.643Z,29.60
2022-12-04T19:54:18.224Z,45.90
2022-12-04T19:56:49.151Z,48.60
2022-12-04T19:59:16.297Z,54.83
2022-12-04T20:01:43.337Z,53.05
2022-12-04T20:04:10.857Z,50.38
2022-12-04T20:06:43.095Z,46.58
2022-12-04T20:09:12.404Z,45.30
2022-12-04T20:11:39.884Z,40.90
2022-12-04T20:14:07.502Z,41.35
2022-12-04T20:16:35.352Z,38.15
2022-12-04T20:19:03.662Z,36.90
2022-12-04T20:21:32.041Z,35.05
2022-12-04T20:24:01.775Z,31.33
2022-12-04T20:26:31.049Z,33.03
2022-12-04T20:28:59.134Z,31.42
2022-12-04T20:31:31.532Z,33.22
2022-12-04T20:33:59.588Z,32.67
2022-12-04T20:36:28.353Z,32.28
2022-12-04T20:38:58.273Z,29.38
2022-12-04T20:41:30.042Z,30.48
2022-12-04T20:44:00.272Z,30.33
2022-12-04T20:46:31.759Z,29.40
2022-12-04T20:49:00.865Z,28.67
2022-12-04T20:51:33.311Z,29.58
2022-12-04T20:54:01.314Z,27.50
2022-12-04T20:56:30.669Z,26.05
2022-12-04T20:59:00.148Z,27.40
2022-12-04T21:01:28.094Z,27.00
2022-12-04T21:06:28.376Z,26.20
2022-12-04T21:09:01.990Z,26.75
2022-12-04T21:11:31.271Z,24.40
2022-12-04T21:14:18.215Z,24.55
2022-12-04T21:16:45.470Z,24.80
2022-12-04T21:19:13.754Z,23.15
2022-12-04T21:21:40.985Z,24.67
2022-12-04T21:24:09.753Z,26.42
2022-12-04T21:26:36.909Z,60.42
2022-12-04T21:29:04.966Z,70.50
2022-12-04T21:31:32.126Z,64.07
2022-12-04T21:34:00.462Z,58.50
2022-12-04T21:36:28.132Z,54.38
2022-12-04T21:38:55.880Z,51.40
2022-12-04T21:41:42.241Z,49.22
2022-12-04T21:44:13.603Z,45.40
2022-12-04T21:46:40.830Z,43.35
2022-12-04T21:49:08.223Z,41.47
2022-12-04T21:54:22.839Z,38.08
2022-12-04T21:56:49.708Z,37.38
2022-12-04T21:59:16.591Z,34.22
2022-12-04T22:01:43.599Z,32.95
2022-12-04T22:04:10.606Z,31.85
2022-12-04T22:06:38.050Z,31.08
2022-12-04T22:09:07.988Z,32.45
2022-12-04T22:11:35.285Z,31.25
2022-12-04T22:14:02.251Z,31.15
2022-12-04T22:16:30.962Z,31.00
2022-12-04T22:18:58.982Z,29.40
2022-12-04T22:21:27.455Z,28.95
2022-12-04T22:23:58.827Z,28.08
2022-12-04T22:26:26.911Z,27.92
2022-12-04T22:28:53.865Z,27.17
2022-12-04T22:31:23.459Z,27.48
2022-12-04T22:36:21.218Z,26.60
2022-12-04T22:39:08.018Z,28.05
2022-12-04T22:41:35.266Z,43.45
2022-12-04T22:44:02.226Z,53.88
2022-12-04T22:46:29.252Z,65.43
2022-12-04T22:48:56.187Z,70.18
2022-12-04T22:51:23.138Z,73.15
2022-12-04T22:53:52.368Z,69.07
2022-12-04T22:56:28.050Z,68.45
2022-12-04T22:58:55.394Z,74.28
2022-12-04T23:01:25.003Z,96.00
2022-12-04T23:06:20.494Z,127.80
2022-12-04T23:08:47.618Z,113.85
2022-12-04T23:11:19.679Z,110.25
2022-12-04T23:13:54.721Z,103.10
2022-12-04T23:16:22.875Z,94.57
2022-12-04T23:18:50.180Z,86.40
2022-12-04T23:21:18.353Z,83.65
2022-12-04T23:23:46.313Z,80.35
2022-12-04T23:26:19.354Z,78.07
2022-12-04T23:28:46.881Z,71.88
2022-12-04T23:31:13.976Z,69.60
2022-12-04T23:33:41.737Z,64.28
2022-12-04T23:36:10.490Z,63.65
2022-12-04T23:38:38.788Z,61.78
2022-12-04T23:41:14.112Z,64.15
2022-12-04T23:43:41.890Z,71.15
2022-12-04T23:46:11.562Z,70.63
2022-12-04T23:48:39.897Z,77.03
2022-12-04T23:51:07.602Z,75.55
2022-12-04T23:53:34.584Z,74.10
2022-12-04T23:56:11.402Z,71.20
2022-12-04T23:58:39.069Z,68.75
